Terminal Aerodrome Forecast
Issued by NWS Charleston, WV

Current Version | Previous Version | Graphics & Text | Print | Product List | Glossary On
Versions: 1 2 3 4 5 6 7 8 9 10 11 12 13 14 15 16 17 18 19 20 21 22 23
508
FTUS41 KRLX 222104 AAA
TAFHTS
TAF AMD
KHTS 222104Z 2221/2318 03009G15KT 6SM -SHRA BR BKN007 OVC015
     FM222200 04007KT P6SM OVC020
     FM230200 06004KT P6SM OVC025=

USA.gov is the U.S. government's official web portal to all federal, state and local government web resources and services.